createdAt,value
2022-11-01T00:00:12.289Z,100978.23
2022-11-01T00:02:44.216Z,100973.39
2022-11-01T00:05:14.358Z,100971.39
2022-11-01T00:07:45.103Z,100972.48
2022-11-01T00:12:46.919Z,100970.93
2022-11-01T00:15:16.698Z,100975.15
2022-11-01T00:17:46.874Z,100971.08
2022-11-01T00:20:16.701Z,100972.73
2022-11-01T00:22:45.564Z,100973.02
2022-11-01T00:25:15.064Z,100969.75
2022-11-01T00:27:46.570Z,100966.68
2022-11-01T00:30:16.673Z,100966.83
2022-11-01T00:32:47.947Z,100959.69
2022-11-01T00:35:17.829Z,100962.55
2022-11-01T00:37:47.740Z,100961.19
2022-11-01T00:40:17.452Z,100960.69
2022-11-01T00:42:46.830Z,100962.05
2022-11-01T00:45:16.232Z,100970.55
2022-11-01T00:47:47.717Z,100972.26
2022-11-01T00:50:17.136Z,100971.25
2022-11-01T00:52:46.565Z,100971.91
2022-11-01T00:55:16.673Z,100973.91
2022-11-01T00:57:46.203Z,100972.20
2022-11-01T01:00:16.235Z,100969.13
2022-11-01T01:02:45.121Z,100967.20
2022-11-01T01:05:14.455Z,100974.14
2022-11-01T01:07:44.785Z,100972.43
2022-11-01T01:10:14.725Z,100975.29
2022-11-01T01:12:46.125Z,100970.51
2022-11-01T01:15:15.527Z,100967.73
2022-11-01T01:17:44.322Z,100969.17
2022-11-01T01:20:14.575Z,100977.19
2022-11-01T01:22:44.232Z,100969.34
2022-11-01T01:25:15.298Z,100964.77
2022-11-01T01:27:44.583Z,100961.95
2022-11-01T01:30:15.373Z,100968.02
2022-11-01T01:32:46.504Z,100974.10
2022-11-01T01:35:16.757Z,100967.04
2022-11-01T01:37:48.097Z,100963.33
2022-11-01T01:40:17.826Z,100963.41
2022-11-01T01:42:48.418Z,100964.55
2022-11-01T01:45:37.344Z,100965.05
2022-11-01T01:48:13.363Z,100964.41
2022-11-01T01:50:58.996Z,100957.91
2022-11-01T01:53:38.260Z,100958.84
2022-11-01T01:56:14.003Z,100958.13
2022-11-01T01:58:50.703Z,100966.05
2022-11-01T02:01:20.196Z,100970.91
2022-11-01T02:03:51.184Z,100968.19
2022-11-01T02:08:57.959Z,100970.83
2022-11-01T02:11:27.219Z,100976.11
2022-11-01T02:13:57.961Z,100976.82
2022-11-01T02:16:54.724Z,100978.67
2022-11-01T02:20:15.323Z,100980.81
2022-11-01T02:23:08.643Z,100984.45
2022-11-01T02:25:51.522Z,100981.19
2022-11-01T02:28:49.140Z,100981.03
2022-11-01T02:31:36.115Z,100972.47
2022-11-01T02:34:19.744Z,100984.22
2022-11-01T02:36:55.229Z,100992.68
2022-11-01T02:39:30.544Z,100994.37
2022-11-01T02:42:17.087Z,100991.93
2022-11-01T02:44:55.420Z,100992.78
2022-11-01T02:47:25.855Z,100989.22
2022-11-01T02:49:56.249Z,100987.64
2022-11-01T02:52:26.172Z,101001.69
2022-11-01T02:55:00.864Z,100999.97
2022-11-01T02:57:40.624Z,101002.45
2022-11-01T03:00:24.915Z,101002.59
2022-11-01T03:03:07.677Z,101006.20
2022-11-01T03:06:05.586Z,101007.56
2022-11-01T03:08:48.293Z,101012.70
2022-11-01T03:11:23.963Z,101006.93
2022-11-01T03:14:22.195Z,101003.14
2022-11-01T03:17:02.461Z,100999.84
2022-11-01T03:19:52.818Z,101007.84
2022-11-01T03:22:56.588Z,101008.12
2022-11-01T03:25:40.416Z,101008.25
2022-11-01T03:28:27.487Z,101004.20
2022-11-01T03:31:10.555Z,101001.40
2022-11-01T03:33:51.609Z,100997.88
2022-11-01T03:36:24.191Z,100998.78
2022-11-01T03:38:58.329Z,100996.34
2022-11-01T03:41:29.281Z,101003.37
2022-11-01T03:43:59.607Z,101001.30
2022-11-01T03:46:30.090Z,100999.58
2022-11-01T03:48:59.848Z,100994.30
2022-11-01T03:51:29.474Z,100995.06
2022-11-01T03:53:59.629Z,101000.25
2022-11-01T03:56:28.850Z,101002.23
2022-11-01T03:58:59.230Z,101009.86
2022-11-01T04:01:28.128Z,101006.30
2022-11-01T04:03:57.846Z,101012.34
2022-11-01T04:06:27.848Z,101006.92
2022-11-01T04:08:57.807Z,101010.13
2022-11-01T04:11:28.392Z,101007.91
2022-11-01T04:13:59.408Z,101002.53
2022-11-01T04:16:46.540Z,101005.87
2022-11-01T04:19:34.567Z,101006.86
2022-11-01T04:22:04.150Z,101008.97
2022-11-01T04:24:34.705Z,101009.00
2022-11-01T04:27:04.476Z,101012.84
2022-11-01T04:29:33.446Z,101013.79
2022-11-01T04:32:03.183Z,101013.45
2022-11-01T04:34:42.905Z,101024.67
2022-11-01T04:37:12.381Z,101025.32
2022-11-01T04:39:42.328Z,101016.97
2022-11-01T04:42:12.641Z,101025.09
2022-11-01T04:44:42.795Z,101027.06
2022-11-01T04:47:12.292Z,101028.41
2022-11-01T04:49:41.671Z,101030.63
2022-11-01T04:52:12.840Z,101029.27
2022-11-01T04:54:43.078Z,101027.30
2022-11-01T04:57:14.533Z,101030.36
2022-11-01T04:59:44.967Z,101037.88
2022-11-01T05:02:16.117Z,101032.60
2022-11-01T05:04:46.911Z,101035.91
2022-11-01T05:07:16.462Z,101029.03
2022-11-01T05:09:46.056Z,101031.25
2022-11-01T05:12:15.839Z,101036.89
2022-11-01T05:14:44.474Z,101034.68
2022-11-01T05:17:13.625Z,101033.95
2022-11-01T05:19:43.053Z,101036.53
2022-11-01T05:22:13.592Z,101034.91
2022-11-01T05:27:12.608Z,101034.76
2022-11-01T05:29:43.843Z,101042.25
2022-11-01T05:32:12.707Z,101040.27
2022-11-01T05:34:43.745Z,101044.30
2022-11-01T05:37:12.972Z,101040.48
2022-11-01T05:39:42.409Z,101040.61
2022-11-01T05:42:13.638Z,101041.83
2022-11-01T05:44:43.602Z,101037.15
2022-11-01T05:47:17.113Z,101039.59
2022-11-01T05:49:44.567Z,101036.13
2022-11-01T05:52:13.676Z,101041.51
2022-11-01T05:54:43.754Z,101039.27
2022-11-01T05:57:13.074Z,101036.30
2022-11-01T05:59:43.849Z,101037.64
2022-11-01T06:02:13.865Z,101032.55
2022-11-01T06:04:43.103Z,101034.50
2022-11-01T06:07:12.723Z,101036.94
2022-11-01T06:09:43.562Z,101043.17
2022-11-01T06:12:14.609Z,101043.13
2022-11-01T06:14:45.522Z,101048.51
2022-11-01T06:17:15.490Z,101042.81
2022-11-01T06:19:48.270Z,101044.13
2022-11-01T06:22:18.635Z,101045.30
2022-11-01T06:24:49.849Z,101036.86
2022-11-01T06:27:19.724Z,101039.95
2022-11-01T06:29:49.030Z,101037.42
2022-11-01T06:32:18.285Z,101035.88
2022-11-01T06:34:47.458Z,101034.68
2022-11-01T06:37:17.035Z,101039.05
2022-11-01T06:39:47.315Z,101035.31
2022-11-01T06:42:16.733Z,101034.76
2022-11-01T06:44:46.262Z,101032.84
2022-11-01T06:47:15.848Z,101037.70
2022-11-01T06:49:45.966Z,101040.92
2022-11-01T06:52:15.799Z,101040.44
2022-11-01T06:54:48.539Z,101046.36
2022-11-01T06:57:19.876Z,101040.22
2022-11-01T06:59:49.318Z,101045.33
2022-11-01T07:02:19.954Z,101043.75
2022-11-01T07:04:50.160Z,101039.95
2022-11-01T07:07:19.521Z,101040.59
2022-11-01T07:09:51.361Z,101036.09
2022-11-01T07:12:22.790Z,101032.28
2022-11-01T07:14:51.711Z,101037.14
2022-11-01T07:17:23.822Z,101037.55
2022-11-01T07:19:53.921Z,101034.75
2022-11-01T07:22:23.525Z,101033.31
2022-11-01T07:24:52.195Z,101039.86
2022-11-01T07:27:22.125Z,101034.23
2022-11-01T07:29:51.131Z,101029.02
2022-11-01T07:32:19.815Z,101028.12
2022-11-01T07:34:49.722Z,101022.59
2022-11-01T07:37:18.757Z,101024.46
2022-11-01T07:39:48.471Z,101019.41
2022-11-01T07:42:17.988Z,101019.95
2022-11-01T07:44:47.406Z,101023.20
2022-11-01T07:47:16.952Z,101018.03
2022-11-01T07:49:47.565Z,101022.98
2022-11-01T07:52:18.233Z,101021.27
2022-11-01T07:54:48.569Z,101019.33
2022-11-01T07:57:17.948Z,101025.56
2022-11-01T07:59:49.048Z,101018.31
2022-11-01T08:02:18.773Z,101013.73
2022-11-01T08:04:48.879Z,101004.41
2022-11-01T08:07:18.586Z,101001.06
2022-11-01T08:09:49.949Z,100997.11
2022-11-01T08:12:20.143Z,101004.62
2022-11-01T08:14:49.457Z,101007.52
2022-11-01T08:17:20.186Z,101000.00
2022-11-01T08:19:53.356Z,100997.48
2022-11-01T08:22:24.454Z,100997.05
2022-11-01T08:24:54.686Z,100996.27
2022-11-01T08:27:23.767Z,101003.84
2022-11-01T08:29:53.481Z,100999.94
2022-11-01T08:32:24.997Z,100993.65
2022-11-01T08:34:56.068Z,100991.66
2022-11-01T08:37:26.583Z,100986.75
2022-11-01T08:39:56.418Z,100987.62
2022-11-01T08:42:26.731Z,100992.97
2022-11-01T08:44:55.938Z,100987.53
2022-11-01T08:47:28.459Z,100987.22
2022-11-01T08:49:59.176Z,100989.45
2022-11-01T08:52:28.658Z,100984.51
2022-11-01T08:54:58.597Z,100982.29
2022-11-01T08:57:28.887Z,100986.89
2022-11-01T08:59:59.412Z,100981.59
2022-11-01T09:02:29.365Z,100983.45
2022-11-01T09:05:00.528Z,100976.27
2022-11-01T09:07:29.767Z,100980.19
2022-11-01T09:09:59.784Z,100976.59
2022-11-01T09:12:30.401Z,100970.09
2022-11-01T09:15:01.909Z,100974.19
2022-11-01T09:17:31.620Z,100962.90
2022-11-01T09:20:00.979Z,100963.75
2022-11-01T09:22:30.479Z,100965.12
2022-11-01T09:25:01.235Z,100961.35
2022-11-01T09:27:31.158Z,100955.52
2022-11-01T09:30:01.902Z,100958.24
2022-11-01T09:32:31.173Z,100954.12
2022-11-01T09:35:01.422Z,100964.70
2022-11-01T09:37:32.464Z,100957.36
2022-11-01T09:40:03.294Z,100959.91
2022-11-01T09:42:35.634Z,100958.70
2022-11-01T09:45:09.883Z,100956.98
2022-11-01T09:47:39.495Z,100958.53
2022-11-01T09:50:22.366Z,100947.92
2022-11-01T09:52:52.103Z,100943.13
2022-11-01T09:55:54.538Z,100941.42
2022-11-01T09:58:30.004Z,100939.89
2022-11-01T10:01:19.469Z,100939.71
2022-11-01T10:04:25.435Z,100934.06
2022-11-01T10:07:14.562Z,100928.41
2022-11-01T10:10:06.720Z,100929.59
2022-11-01T10:12:58.260Z,100930.97
2022-11-01T10:15:55.255Z,100935.92
2022-11-01T10:18:32.543Z,100930.27
2022-11-01T10:21:07.795Z,100927.69
2022-11-01T10:23:51.583Z,100919.45
2022-11-01T10:26:29.694Z,100913.28
2022-11-01T10:29:16.137Z,100907.63
2022-11-01T10:31:47.352Z,100897.52
2022-11-01T10:34:36.135Z,100894.42
2022-11-01T10:37:27.718Z,100898.69
2022-11-01T10:40:09.675Z,100887.22
2022-11-01T10:42:38.663Z,100879.34
2022-11-01T10:45:11.973Z,100883.08
2022-11-01T10:47:43.591Z,100879.12
2022-11-01T10:50:18.840Z,100880.13
2022-11-01T10:52:54.338Z,100882.16
2022-11-01T10:55:32.852Z,100880.43
2022-11-01T10:58:10.084Z,100873.91
2022-11-01T11:00:39.290Z,100874.25
2022-11-01T11:03:28.501Z,100875.95
2022-11-01T11:06:01.807Z,100874.77
2022-11-01T11:08:32.005Z,100870.99
2022-11-01T11:11:07.786Z,100870.30
2022-11-01T11:13:47.200Z,100867.70
2022-11-01T11:16:28.263Z,100871.63
2022-11-01T11:19:26.071Z,100871.96
2022-11-01T11:22:10.144Z,100870.73
2022-11-01T11:25:01.354Z,100865.59
2022-11-01T11:27:40.732Z,100865.41
2022-11-01T11:30:15.466Z,100872.41
2022-11-01T11:32:56.720Z,100862.97
2022-11-01T11:35:34.702Z,100860.22
2022-11-01T11:38:13.406Z,100860.18
2022-11-01T11:40:45.567Z,100859.63
2022-11-01T11:43:35.912Z,100865.77
2022-11-01T11:46:21.077Z,100860.10
2022-11-01T11:49:02.383Z,100864.36
2022-11-01T11:51:37.456Z,100865.55
2022-11-01T11:54:28.588Z,100867.91
2022-11-01T11:57:11.775Z,100867.20
2022-11-01T11:59:42.978Z,100867.53
2022-11-01T12:02:37.572Z,100861.34
2022-11-01T12:05:11.684Z,100864.75
2022-11-01T12:07:55.731Z,100859.75
2022-11-01T12:10:39.967Z,100862.96
2022-11-01T12:13:32.915Z,100863.11
2022-11-01T12:16:20.292Z,100859.66
2022-11-01T12:19:02.763Z,100860.66
2022-11-01T12:21:39.766Z,100863.53
2022-11-01T12:24:40.144Z,100862.31
2022-11-01T12:27:17.526Z,100860.56
2022-11-01T12:30:08.294Z,100862.59
2022-11-01T12:32:57.416Z,100862.59
2022-11-01T12:35:38.157Z,100866.84
2022-11-01T12:38:50.288Z,100867.18
2022-11-01T12:41:34.064Z,100868.88
2022-11-01T12:44:23.514Z,100867.84
2022-11-01T12:47:02.207Z,100868.17
2022-11-01T12:49:53.858Z,100862.17
2022-11-01T12:52:47.084Z,100861.65
2022-11-01T12:55:27.112Z,100864.20
2022-11-01T12:57:57.755Z,100857.53
2022-11-01T13:00:41.695Z,100854.98
2022-11-01T13:03:45.577Z,100853.61
2022-11-01T13:06:43.565Z,100847.28
2022-11-01T13:09:46.842Z,100853.61
2022-11-01T13:12:37.332Z,100844.53
2022-11-01T13:15:25.604Z,100840.75
2022-11-01T13:18:08.616Z,100842.97
2022-11-01T13:21:02.071Z,100837.63
2022-11-01T13:23:39.982Z,100839.00
2022-11-01T13:26:17.351Z,100834.73
2022-11-01T13:29:17.324Z,100829.39
2022-11-01T13:32:31.534Z,100828.34
2022-11-01T13:35:14.954Z,100821.67
2022-11-01T13:38:04.848Z,100823.23
2022-11-01T13:40:59.617Z,100822.72
2022-11-01T13:43:35.075Z,100818.09
2022-11-01T13:46:19.995Z,100818.61
2022-11-01T13:49:22.923Z,100813.97
2022-11-01T13:52:01.353Z,100814.84
2022-11-01T13:54:53.594Z,100804.25
2022-11-01T13:57:26.097Z,100801.70
2022-11-01T13:59:59.168Z,100798.63
2022-11-01T14:02:49.945Z,100786.16
2022-11-01T14:05:19.920Z,100787.72
2022-11-01T14:08:06.585Z,100788.95
2022-11-01T14:10:48.188Z,100783.52
2022-11-01T14:13:21.441Z,100782.19
2022-11-01T14:16:00.345Z,100783.80
2022-11-01T14:18:29.873Z,100785.23
2022-11-01T14:24:22.074Z,100783.43
2022-11-01T14:27:11.267Z,100790.19
2022-11-01T14:29:53.035Z,100785.79
2022-11-01T14:32:27.795Z,100780.88
2022-11-01T14:35:21.643Z,100783.14
2022-11-01T14:37:57.263Z,100782.85
2022-11-01T14:40:34.491Z,100775.02
2022-11-01T14:43:20.686Z,100778.13
2022-11-01T14:46:02.895Z,100776.47
2022-11-01T14:49:27.957Z,100766.93
2022-11-01T14:52:18.082Z,100767.63
2022-11-01T14:55:04.705Z,100775.34
2022-11-01T14:57:35.411Z,100771.79
2022-11-01T15:00:38.506Z,100772.83
2022-11-01T15:03:34.728Z,100768.57
2022-11-01T15:06:26.379Z,100772.20
2022-11-01T15:09:03.474Z,100770.86
2022-11-01T15:11:34.305Z,100766.80
2022-11-01T15:14:06.824Z,100769.57
2022-11-01T15:16:37.378Z,100764.98
2022-11-01T15:19:17.159Z,100769.94
2022-11-01T15:21:55.164Z,100766.20
2022-11-01T15:24:26.525Z,100771.02
2022-11-01T15:26:55.289Z,100767.61
2022-11-01T15:29:29.126Z,100765.23
2022-11-01T15:32:00.395Z,100763.88
2022-11-01T15:34:32.105Z,100764.05
2022-11-01T15:37:25.947Z,100758.25
2022-11-01T15:39:55.615Z,100759.43
2022-11-01T15:42:27.991Z,100765.61
2022-11-01T15:44:57.541Z,100761.35
2022-11-01T15:47:27.810Z,100764.45
2022-11-01T15:50:05.028Z,100763.97
2022-11-01T15:52:38.800Z,100766.73
2022-11-01T15:55:17.153Z,100768.50
2022-11-01T15:57:48.619Z,100760.69
2022-11-01T16:00:20.141Z,100767.03
2022-11-01T16:03:04.997Z,100760.74
2022-11-01T16:05:45.764Z,100756.67
2022-11-01T16:08:22.813Z,100747.82
2022-11-01T16:10:51.708Z,100746.48
2022-11-01T16:13:24.817Z,100751.97
2022-11-01T16:16:07.753Z,100741.24
2022-11-01T16:18:40.924Z,100739.35
2022-11-01T16:21:30.324Z,100731.52
2022-11-01T16:24:13.965Z,100731.53
2022-11-01T16:27:02.146Z,100734.98
2022-11-01T16:29:50.270Z,100733.28
2022-11-01T16:32:24.408Z,100727.48
2022-11-01T16:34:55.095Z,100725.44
2022-11-01T16:37:30.866Z,100731.42
2022-11-01T16:40:12.266Z,100723.05
2022-11-01T16:42:41.974Z,100723.20
2022-11-01T16:45:12.409Z,100711.76
2022-11-01T16:47:42.200Z,100713.64
2022-11-01T16:50:18.750Z,100713.12
2022-11-01T16:52:48.755Z,100714.48
2022-11-01T16:55:18.902Z,100701.34
2022-11-01T16:57:48.904Z,100698.09
2022-11-01T17:00:18.468Z,100696.39
2022-11-01T17:02:49.210Z,100697.75
2022-11-01T17:05:21.180Z,100698.78
2022-11-01T17:07:50.529Z,100698.45
2022-11-01T17:10:26.237Z,100702.91
2022-11-01T17:12:57.486Z,100701.72
2022-11-01T17:15:28.612Z,100704.30
2022-11-01T17:17:58.843Z,100706.18
2022-11-01T17:20:28.139Z,100708.76
2022-11-01T17:22:57.780Z,100710.99
2022-11-01T17:25:29.509Z,100707.77
2022-11-01T17:27:58.633Z,100702.66
2022-11-01T17:30:27.889Z,100692.27
2022-11-01T17:32:57.325Z,100695.70
2022-11-01T17:35:27.927Z,100698.94
2022-11-01T17:37:57.478Z,100690.77
2022-11-01T17:40:26.661Z,100684.98
2022-11-01T17:42:57.738Z,100680.73
2022-11-01T17:45:27.201Z,100670.67
2022-11-01T17:47:57.769Z,100672.73
2022-11-01T17:50:27.917Z,100674.95
2022-11-01T17:52:57.554Z,100677.86
2022-11-01T17:55:26.286Z,100676.31
2022-11-01T17:57:55.641Z,100678.87
2022-11-01T18:00:24.634Z,100684.33
2022-11-01T18:02:56.913Z,100676.48
2022-11-01T18:05:25.781Z,100671.69
2022-11-01T18:07:57.092Z,100686.02
2022-11-01T18:10:39.249Z,100676.45
2022-11-01T18:13:36.221Z,100667.75
2022-11-01T18:16:20.456Z,100671.17
2022-11-01T18:19:16.454Z,100670.50
2022-11-01T18:22:10.803Z,100669.31
2022-11-01T18:24:53.295Z,100684.67
2022-11-01T18:27:37.500Z,100680.75
2022-11-01T18:30:14.660Z,100668.97
2022-11-01T18:33:00.859Z,100663.34
2022-11-01T18:35:51.225Z,100663.34
2022-11-01T18:38:57.542Z,100669.67
2022-11-01T18:41:26.774Z,100661.50
2022-11-01T18:43:55.552Z,100654.99
2022-11-01T18:46:27.331Z,100652.27
2022-11-01T18:49:00.937Z,100644.25
2022-11-01T18:51:33.359Z,100646.48
2022-11-01T18:54:19.883Z,100647.02
2022-11-01T18:56:54.990Z,100646.00
2022-11-01T18:59:32.607Z,100641.41
2022-11-01T19:02:18.760Z,100639.70
2022-11-01T19:04:50.436Z,100643.13
2022-11-01T19:07:23.374Z,100645.88
2022-11-01T19:10:02.508Z,100655.08
2022-11-01T19:12:41.050Z,100656.80
2022-11-01T19:15:24.472Z,100651.53
2022-11-01T19:18:02.694Z,100650.52
2022-11-01T19:20:46.662Z,100646.09
2022-11-01T19:23:21.082Z,100643.55
2022-11-01T19:25:51.017Z,100647.14
2022-11-01T19:28:28.924Z,100635.69
2022-11-01T19:31:01.643Z,100637.23
2022-11-01T19:33:36.990Z,100624.79
2022-11-01T19:36:19.324Z,100620.70
2022-11-01T19:38:48.324Z,100627.02
2022-11-01T19:41:33.527Z,100622.59
2022-11-01T19:44:12.373Z,100628.39
2022-11-01T19:46:44.110Z,100626.52
2022-11-01T19:49:26.283Z,100628.56
2022-11-01T19:52:13.008Z,100627.37
2022-11-01T19:54:45.171Z,100625.51
2022-11-01T19:57:31.626Z,100620.75
2022-11-01T20:00:21.938Z,100619.05
2022-11-01T20:02:53.407Z,100620.75
2022-11-01T20:05:34.251Z,100618.02
2022-11-01T20:08:18.319Z,100613.43
2022-11-01T20:10:50.040Z,100619.22
2022-11-01T20:13:19.142Z,100631.48
2022-11-01T20:15:49.677Z,100633.87
2022-11-01T20:18:20.344Z,100621.10
2022-11-01T20:20:49.117Z,100630.13
2022-11-01T20:23:26.907Z,100631.33
2022-11-01T20:25:50.069Z,100638.99
2022-11-01T20:28:18.945Z,100629.97
2022-11-01T20:30:48.881Z,100637.13
2022-11-01T20:33:17.840Z,100634.40
2022-11-01T20:35:48.037Z,100634.91
2022-11-01T20:38:16.897Z,100631.67
2022-11-01T20:40:46.570Z,100629.97
2022-11-01T20:43:17.063Z,100631.50
2022-11-01T20:45:46.398Z,100612.91
2022-11-01T20:48:15.663Z,100608.48
2022-11-01T20:50:44.933Z,100604.22
2022-11-01T20:53:14.808Z,100602.34
2022-11-01T20:55:45.054Z,100605.41
2022-11-01T20:58:14.516Z,100603.53
2022-11-01T21:00:43.305Z,100593.66
2022-11-01T21:03:15.875Z,100587.88
2022-11-01T21:05:47.043Z,100594.85
2022-11-01T21:08:26.671Z,100595.70
2022-11-01T21:11:02.173Z,100601.33
2022-11-01T21:13:37.848Z,100601.33
2022-11-01T21:16:15.418Z,100602.86
2022-11-01T21:18:46.326Z,100595.70
2022-11-01T21:21:26.495Z,100588.38
2022-11-01T21:23:57.174Z,100587.02
2022-11-01T21:26:31.438Z,100586.68
2022-11-01T21:29:09.910Z,100589.41
2022-11-01T21:31:38.786Z,100571.02
2022-11-01T21:34:16.165Z,100576.30
2022-11-01T21:36:49.185Z,100573.91
2022-11-01T21:39:27.714Z,100565.40
2022-11-01T21:42:01.258Z,100573.40
2022-11-01T21:44:40.078Z,100574.42
2022-11-01T21:47:21.569Z,100591.09
2022-11-01T21:49:51.028Z,100576.12
2022-11-01T21:52:21.027Z,100571.19
2022-11-01T21:54:51.129Z,100564.20
2022-11-01T21:57:20.443Z,100561.14
2022-11-01T21:59:49.317Z,100557.73
2022-11-01T22:02:19.482Z,100557.22
2022-11-01T22:04:48.723Z,100558.41
2022-11-01T22:07:18.027Z,100545.65
2022-11-01T22:09:49.000Z,100548.38
2022-11-01T22:12:18.298Z,100543.09
2022-11-01T22:14:47.544Z,100534.92
2022-11-01T22:17:18.179Z,100528.28
2022-11-01T22:19:47.690Z,100521.48
2022-11-01T22:22:18.067Z,100516.88
2022-11-01T22:24:47.213Z,100512.80
2022-11-01T22:27:17.111Z,100519.77
2022-11-01T22:29:46.638Z,100511.09
2022-11-01T22:32:17.313Z,100510.03
2022-11-01T22:34:46.478Z,100511.40
2022-11-01T22:37:16.111Z,100502.38
2022-11-01T22:39:47.002Z,100500.68
2022-11-01T22:42:17.441Z,100494.05
2022-11-01T22:44:47.772Z,100484.35
2022-11-01T22:47:26.804Z,100487.95
2022-11-01T22:49:58.891Z,100477.92
2022-11-01T22:52:43.098Z,100482.31
2022-11-01T22:55:17.730Z,100477.88
2022-11-01T22:57:55.333Z,100477.87
2022-11-01T23:00:36.483Z,100477.20
2022-11-01T23:03:31.295Z,100465.13
2022-11-01T23:06:02.113Z,100460.53
2022-11-01T23:08:35.255Z,100459.34
2022-11-01T23:11:06.709Z,100456.95
2022-11-01T23:13:56.259Z,100460.34
2022-11-01T23:16:29.168Z,100453.53
2022-11-01T23:19:12.520Z,100467.30
2022-11-01T23:21:41.695Z,100453.70
2022-11-01T23:24:11.377Z,100465.44
2022-11-01T23:26:40.174Z,100463.22
2022-11-01T23:29:09.220Z,100452.69
2022-11-01T23:31:38.006Z,100450.81
2022-11-01T23:34:10.513Z,100445.38
2022-11-01T23:36:39.774Z,100450.31
2022-11-01T23:39:11.452Z,100441.13
2022-11-01T23:41:42.840Z,100441.13
2022-11-01T23:44:35.607Z,100442.30
2022-11-01T23:47:37.189Z,100443.14
2022-11-01T23:50:30.208Z,100432.92
2022-11-01T23:53:10.988Z,100432.55
2022-11-01T23:55:44.372Z,100436.59
2022-11-01T23:58:21.002Z,100432.89
